createdAt,value
2018-02-21T00:00:36.612Z,31.40
2018-02-21T00:03:05.012Z,31.40
2018-02-21T00:05:33.301Z,31.30
2018-02-21T00:08:01.605Z,31.10
2018-02-21T00:10:37.062Z,31.10
2018-02-21T00:13:05.772Z,31.00
2018-02-21T00:15:34.396Z,31.00
2018-02-21T00:18:02.743Z,31.00
2018-02-21T00:20:31.048Z,30.80
2018-02-21T00:22:59.327Z,30.80
2018-02-21T00:25:27.604Z,30.70
2018-02-21T00:27:56.686Z,30.70
2018-02-21T00:30:24.989Z,30.70
2018-02-21T00:32:53.303Z,30.60
2018-02-21T00:35:21.616Z,30.60
2018-02-21T00:37:49.893Z,30.60
2018-02-21T00:40:18.191Z,30.60
2018-02-21T00:42:46.545Z,30.40
2018-02-21T00:45:14.862Z,30.40
2018-02-21T00:47:43.610Z,30.30
2018-02-21T00:50:16.369Z,30.30
2018-02-21T00:52:45.400Z,30.30
2018-02-21T00:55:13.677Z,30.30
2018-02-21T00:57:41.963Z,30.30
2018-02-21T01:00:10.250Z,30.10
2018-02-21T01:02:38.932Z,30.10
2018-02-21T01:05:07.739Z,30.10
2018-02-21T01:07:36.019Z,30.10
2018-02-21T01:10:04.299Z,30.10
2018-02-21T01:12:32.590Z,30.10
2018-02-21T01:15:00.864Z,29.90
2018-02-21T01:17:29.164Z,29.90
2018-02-21T01:19:57.443Z,29.90
2018-02-21T01:22:25.719Z,29.90
2018-02-21T01:24:54.036Z,29.90
2018-02-21T01:27:22.942Z,29.80
2018-02-21T01:29:51.227Z,29.80
2018-02-21T01:32:19.515Z,29.80
2018-02-21T01:34:47.804Z,29.80
2018-02-21T01:37:16.415Z,29.80
2018-02-21T01:39:44.995Z,29.80
2018-02-21T01:42:13.314Z,29.80
2018-02-21T01:44:41.636Z,29.70
2018-02-21T01:47:10.237Z,29.70
2018-02-21T01:49:38.527Z,29.70
2018-02-21T01:52:06.796Z,29.70
2018-02-21T01:54:35.115Z,29.70
2018-02-21T01:57:03.394Z,29.70
2018-02-21T01:59:32.037Z,29.70
2018-02-21T02:02:00.349Z,29.70
2018-02-21T02:04:28.854Z,29.70
2018-02-21T02:06:57.494Z,29.60
2018-02-21T02:09:26.568Z,29.60
2018-02-21T02:11:54.853Z,29.60
2018-02-21T02:14:23.147Z,29.60
2018-02-21T02:16:51.853Z,29.60
2018-02-21T02:19:20.132Z,29.60
2018-02-21T02:21:49.368Z,29.60
2018-02-21T02:24:18.743Z,29.60
2018-02-21T02:26:47.960Z,29.60
2018-02-21T02:29:17.641Z,29.60
2018-02-21T02:31:46.444Z,29.60
2018-02-21T02:34:14.908Z,29.50
2018-02-21T02:36:43.413Z,29.50
2018-02-21T02:42:25.660Z,29.50
2018-02-21T02:44:53.970Z,29.60
2018-02-21T02:47:22.257Z,29.60
2018-02-21T02:49:50.548Z,29.60
2018-02-21T02:52:18.867Z,29.60
2018-02-21T02:54:47.163Z,29.60
2018-02-21T02:57:15.846Z,29.60
2018-02-21T02:59:44.560Z,29.60
2018-02-21T03:02:12.837Z,29.60
2018-02-21T03:04:41.128Z,29.50
2018-02-21T03:07:09.439Z,29.60
2018-02-21T03:09:37.718Z,29.50
2018-02-21T03:12:06.011Z,29.50
2018-02-21T03:14:34.328Z,29.50
2018-02-21T03:17:02.940Z,29.60
2018-02-21T03:19:31.324Z,29.50
2018-02-21T03:21:59.634Z,29.50
2018-02-21T03:24:28.195Z,29.50
2018-02-21T03:26:56.894Z,29.50
2018-02-21T03:29:25.188Z,29.50
2018-02-21T03:31:53.903Z,29.50
2018-02-21T03:34:22.186Z,29.50
2018-02-21T03:36:50.471Z,29.50
2018-02-21T03:39:18.798Z,29.50
2018-02-21T03:41:47.111Z,29.50
2018-02-21T03:44:15.400Z,29.40
2018-02-21T03:46:43.716Z,29.40
2018-02-21T03:49:11.998Z,29.40
2018-02-21T03:51:40.672Z,29.40
2018-02-21T03:54:09.009Z,29.40
2018-02-21T03:56:37.315Z,29.40
2018-02-21T03:59:05.628Z,29.40
2018-02-21T04:01:33.967Z,29.40
2018-02-21T04:04:02.242Z,29.40
2018-02-21T04:06:30.535Z,29.40
2018-02-21T04:08:58.847Z,29.40
2018-02-21T04:11:27.184Z,29.40
2018-02-21T04:13:56.338Z,29.40
2018-02-21T04:16:24.735Z,29.40
2018-02-21T04:18:53.013Z,29.40
2018-02-21T04:21:21.392Z,29.30
2018-02-21T04:23:49.740Z,29.30
2018-02-21T04:26:18.021Z,29.30
2018-02-21T04:28:46.325Z,29.30
2018-02-21T04:31:14.655Z,29.30
2018-02-21T04:33:42.944Z,29.30
2018-02-21T04:36:11.225Z,29.30
2018-02-21T04:38:39.551Z,29.30
2018-02-21T04:41:07.840Z,29.30
2018-02-21T04:43:36.409Z,29.30
2018-02-21T04:46:05.115Z,29.30
2018-02-21T04:48:33.803Z,29.30
2018-02-21T04:51:02.508Z,29.30
2018-02-21T04:53:30.787Z,29.30
2018-02-21T04:56:04.833Z,29.30
2018-02-21T04:58:38.664Z,29.30
2018-02-21T05:01:07.019Z,29.30
2018-02-21T05:03:35.331Z,29.30
2018-02-21T05:06:04.015Z,29.30
2018-02-21T05:08:32.316Z,29.30
2018-02-21T05:11:00.626Z,29.30
2018-02-21T05:13:29.235Z,29.30
2018-02-21T05:15:57.536Z,29.20
2018-02-21T05:18:26.212Z,29.30
2018-02-21T05:20:55.108Z,29.30
2018-02-21T05:23:23.407Z,29.30
2018-02-21T05:25:51.683Z,29.30
2018-02-21T05:28:19.970Z,29.20
2018-02-21T05:30:48.278Z,29.20
2018-02-21T05:33:16.823Z,29.20
2018-02-21T05:35:45.140Z,29.20
2018-02-21T05:38:13.416Z,29.20
2018-02-21T05:40:41.703Z,29.20
2018-02-21T05:43:09.985Z,29.20
2018-02-21T05:45:38.269Z,29.20
2018-02-21T05:48:06.689Z,29.20
2018-02-21T05:50:34.975Z,29.20
2018-02-21T05:53:03.303Z,29.20
2018-02-21T05:55:31.594Z,29.20
2018-02-21T05:58:00.342Z,29.20
2018-02-21T06:00:28.630Z,29.20
2018-02-21T06:02:57.846Z,29.20
2018-02-21T06:05:26.136Z,29.20
2018-02-21T06:07:54.794Z,29.20
2018-02-21T06:10:23.153Z,29.20
2018-02-21T06:12:51.430Z,29.20
2018-02-21T06:15:19.720Z,29.20
2018-02-21T06:17:48.015Z,29.20
2018-02-21T06:20:16.704Z,29.20
2018-02-21T06:22:45.412Z,29.20
2018-02-21T06:25:13.833Z,29.20
2018-02-21T06:27:42.119Z,29.10
2018-02-21T06:30:10.443Z,29.10
2018-02-21T06:32:38.719Z,29.10
2018-02-21T06:35:07.019Z,29.10
2018-02-21T06:37:35.331Z,29.10
2018-02-21T06:40:03.924Z,29.10
2018-02-21T06:42:32.500Z,29.00
2018-02-21T06:45:00.804Z,29.00
2018-02-21T06:47:29.112Z,29.00
2018-02-21T06:49:57.450Z,29.00
2018-02-21T06:52:26.131Z,28.90
2018-02-21T06:54:54.435Z,28.90
2018-02-21T06:57:22.752Z,28.90
2018-02-21T06:59:51.031Z,28.90
2018-02-21T07:02:32.103Z,28.80
2018-02-21T07:05:00.406Z,28.80
2018-02-21T07:07:29.093Z,28.70
2018-02-21T07:09:57.428Z,28.70
2018-02-21T07:12:25.808Z,28.70
2018-02-21T07:14:54.097Z,28.60
2018-02-21T07:17:22.428Z,28.60
2018-02-21T07:19:51.097Z,28.60
2018-02-21T07:22:19.792Z,28.50
2018-02-21T07:24:48.107Z,28.50
2018-02-21T07:27:16.394Z,28.50
2018-02-21T07:29:44.672Z,28.40
2018-02-21T07:32:12.996Z,28.30
2018-02-21T07:34:41.721Z,28.10
2018-02-21T07:37:10.003Z,28.10
2018-02-21T07:39:38.320Z,28.00
2018-02-21T07:42:06.600Z,28.00
2018-02-21T07:44:35.335Z,27.80
2018-02-21T07:47:03.639Z,27.80
2018-02-21T07:49:31.931Z,27.70
2018-02-21T07:52:00.249Z,27.60
2018-02-21T07:54:28.539Z,27.60
2018-02-21T07:56:57.059Z,27.60
2018-02-21T07:59:25.365Z,27.60
2018-02-21T08:01:54.057Z,27.50
2018-02-21T08:04:22.772Z,27.40
2018-02-21T08:06:53.711Z,27.30
2018-02-21T08:09:22.028Z,27.30
2018-02-21T08:11:50.388Z,27.30
2018-02-21T08:14:19.400Z,27.20
2018-02-21T08:16:47.719Z,27.20
2018-02-21T08:19:16.071Z,27.20
2018-02-21T08:21:45.073Z,27.10
2018-02-21T08:24:13.443Z,27.10
2018-02-21T08:26:42.521Z,27.10
2018-02-21T08:29:11.215Z,27.10
2018-02-21T08:31:39.510Z,27.10
2018-02-21T08:34:08.577Z,27.10
2018-02-21T08:36:36.905Z,27.00
2018-02-21T08:39:05.408Z,27.00
2018-02-21T08:41:33.706Z,27.00
2018-02-21T08:44:02.025Z,26.90
2018-02-21T08:46:31.243Z,26.60
2018-02-21T08:48:59.545Z,26.30
2018-02-21T08:51:28.560Z,34.50
2018-02-21T08:53:57.474Z,34.50
2018-02-21T08:56:26.206Z,33.20
2018-02-21T08:58:54.529Z,33.20
2018-02-21T09:01:23.218Z,30.30
2018-02-21T09:03:51.911Z,28.20
2018-02-21T09:06:20.623Z,26.30
2018-02-21T09:08:49.459Z,26.30
2018-02-21T09:11:18.166Z,24.60
2018-02-21T09:13:46.582Z,24.60
2018-02-21T09:16:16.044Z,23.50
2018-02-21T09:18:44.419Z,22.90
2018-02-21T09:21:13.115Z,21.40
2018-02-21T09:23:41.799Z,21.20
2018-02-21T09:26:10.485Z,20.90
2018-02-21T09:28:38.803Z,20.90
2018-02-21T09:31:07.099Z,20.80
2018-02-21T09:33:36.019Z,19.20
2018-02-21T09:36:04.326Z,19.40
2018-02-21T09:38:32.644Z,19.30
2018-02-21T09:41:01.192Z,18.90
2018-02-21T09:43:29.486Z,18.10
2018-02-21T09:45:57.882Z,18.80
2018-02-21T09:48:26.199Z,18.40
2018-02-21T09:50:55.216Z,18.10
2018-02-21T09:53:23.512Z,18.10
2018-02-21T09:55:51.824Z,18.30
2018-02-21T09:58:20.123Z,18.10
2018-02-21T10:00:48.415Z,17.80
2018-02-21T10:03:16.732Z,17.60
2018-02-21T10:05:45.025Z,17.40
2018-02-21T10:08:13.319Z,17.40
2018-02-21T10:10:42.302Z,17.00
2018-02-21T10:13:10.588Z,17.00
2018-02-21T10:15:38.887Z,16.90
2018-02-21T10:18:08.087Z,16.80
2018-02-21T10:20:36.379Z,16.50
2018-02-21T10:23:04.729Z,16.40
2018-02-21T10:25:33.420Z,16.60
2018-02-21T10:28:01.725Z,16.60
2018-02-21T10:30:30.058Z,16.60
2018-02-21T10:32:58.742Z,17.00
2018-02-21T10:35:28.353Z,16.80
2018-02-21T10:37:57.076Z,16.40
2018-02-21T10:40:25.367Z,16.40
2018-02-21T10:42:53.760Z,16.70
2018-02-21T10:45:22.111Z,16.30
2018-02-21T10:47:50.443Z,16.90
2018-02-21T10:50:19.165Z,17.00
2018-02-21T10:52:47.579Z,17.00
2018-02-21T10:55:15.876Z,17.10
2018-02-21T10:57:44.209Z,17.30
2018-02-21T11:03:11.407Z,17.00
2018-02-21T11:05:39.812Z,16.80
2018-02-21T11:08:08.145Z,16.30
2018-02-21T11:10:36.460Z,16.40
2018-02-21T11:13:04.776Z,16.40
2018-02-21T11:15:33.078Z,15.70
2018-02-21T11:18:01.916Z,15.30
2018-02-21T11:20:30.620Z,15.40
2018-02-21T11:22:58.926Z,15.50
2018-02-21T11:25:27.257Z,15.60
2018-02-21T11:27:55.598Z,15.90
2018-02-21T11:30:23.919Z,15.20
2018-02-21T11:32:52.246Z,16.00
2018-02-21T11:35:20.537Z,16.20
2018-02-21T11:37:48.833Z,16.10
2018-02-21T11:40:17.569Z,15.50
2018-02-21T11:42:45.848Z,15.50
2018-02-21T11:45:14.167Z,16.00
2018-02-21T11:47:42.507Z,16.10
2018-02-21T11:50:10.808Z,16.50
2018-02-21T11:52:39.087Z,16.10
2018-02-21T11:55:07.466Z,16.60
2018-02-21T11:57:35.809Z,16.40
2018-02-21T12:00:04.441Z,16.30
2018-02-21T12:02:32.770Z,16.30
2018-02-21T12:05:01.509Z,16.70
2018-02-21T12:07:30.214Z,17.40
2018-02-21T12:09:58.941Z,17.60
2018-02-21T12:12:27.569Z,17.60
2018-02-21T12:14:56.255Z,17.40
2018-02-21T12:17:24.833Z,17.40
2018-02-21T12:19:53.536Z,17.70
2018-02-21T12:22:22.221Z,17.70
2018-02-21T12:24:50.948Z,18.00
2018-02-21T12:27:19.240Z,18.00
2018-02-21T12:29:47.544Z,18.00
2018-02-21T12:32:16.240Z,17.10
2018-02-21T12:34:44.547Z,17.10
2018-02-21T12:37:12.885Z,18.00
2018-02-21T12:39:41.581Z,18.10
2018-02-21T12:42:10.293Z,17.80
2018-02-21T12:44:38.932Z,17.80
2018-02-21T12:47:07.268Z,17.80
2018-02-21T12:49:35.552Z,17.70
2018-02-21T12:52:03.864Z,17.50
2018-02-21T12:54:32.674Z,17.40
2018-02-21T12:57:01.367Z,18.00
2018-02-21T12:59:30.059Z,17.90
2018-02-21T13:01:58.373Z,17.90
2018-02-21T13:04:26.931Z,17.30
2018-02-21T13:06:55.261Z,17.30
2018-02-21T13:09:23.564Z,16.80
2018-02-21T13:11:51.962Z,17.60
2018-02-21T13:14:20.245Z,16.70
2018-02-21T13:16:48.659Z,16.80
2018-02-21T13:19:17.838Z,16.60
2018-02-21T13:21:46.132Z,16.40
2018-02-21T13:24:14.547Z,17.20
2018-02-21T13:26:42.927Z,16.90
2018-02-21T13:29:11.292Z,16.20
2018-02-21T13:31:39.593Z,17.00
2018-02-21T13:34:08.012Z,16.50
2018-02-21T13:36:36.732Z,16.50
2018-02-21T13:39:05.053Z,16.50
2018-02-21T13:41:33.342Z,16.70
2018-02-21T13:44:01.980Z,16.60
2018-02-21T13:46:30.404Z,15.40
2018-02-21T13:48:58.684Z,16.00
2018-02-21T13:51:27.355Z,15.70
2018-02-21T13:53:56.028Z,15.70
2018-02-21T13:56:24.345Z,15.70
2018-02-21T13:58:52.672Z,15.90
2018-02-21T14:01:21.360Z,15.90
2018-02-21T14:03:50.031Z,16.80
2018-02-21T14:06:18.740Z,17.10
2018-02-21T14:08:47.023Z,17.10
2018-02-21T14:11:15.555Z,17.10
2018-02-21T14:13:43.867Z,17.00
2018-02-21T14:16:12.171Z,16.40
2018-02-21T14:18:40.801Z,16.60
2018-02-21T14:21:09.126Z,16.90
2018-02-21T14:23:37.459Z,16.80
2018-02-21T14:26:05.743Z,16.60
2018-02-21T14:28:34.757Z,16.40
2018-02-21T14:31:03.420Z,16.90
2018-02-21T14:33:31.730Z,16.90
2018-02-21T14:36:00.056Z,16.90
2018-02-21T14:38:28.358Z,16.50
2018-02-21T14:40:56.681Z,17.40
2018-02-21T14:43:25.111Z,18.00
2018-02-21T14:45:53.792Z,17.50
2018-02-21T14:48:22.087Z,17.60
2018-02-21T14:50:50.408Z,17.00
2018-02-21T14:53:19.728Z,17.50
2018-02-21T14:55:48.023Z,18.60
2018-02-21T14:58:16.592Z,18.90
2018-02-21T15:00:44.899Z,18.60
2018-02-21T15:03:13.452Z,17.70
2018-02-21T15:05:41.755Z,18.30
2018-02-21T15:08:10.460Z,19.40
2018-02-21T15:10:38.739Z,19.40
2018-02-21T15:13:07.014Z,19.00
2018-02-21T15:15:35.323Z,17.50
2018-02-21T15:18:03.886Z,19.40
2018-02-21T15:20:33.137Z,19.60
2018-02-21T15:23:02.556Z,19.70
2018-02-21T15:25:31.250Z,19.50
2018-02-21T15:27:59.674Z,19.50
2018-02-21T15:30:28.274Z,18.70
2018-02-21T15:32:56.568Z,19.40
2018-02-21T15:35:25.545Z,18.30
2018-02-21T15:37:53.834Z,18.30
2018-02-21T15:40:22.114Z,19.00
2018-02-21T15:42:50.819Z,20.50
2018-02-21T15:45:19.168Z,20.50
2018-02-21T15:47:47.519Z,19.90
2018-02-21T15:50:15.899Z,20.10
2018-02-21T15:52:44.178Z,20.70
2018-02-21T15:55:12.785Z,20.40
2018-02-21T15:57:41.077Z,21.40
2018-02-21T16:00:09.925Z,21.90
2018-02-21T16:02:38.253Z,21.90
2018-02-21T16:05:06.685Z,22.20
2018-02-21T16:07:34.980Z,22.30
2018-02-21T16:10:03.307Z,21.50
2018-02-21T16:12:31.622Z,20.90
2018-02-21T16:15:00.436Z,21.70
2018-02-21T16:17:29.182Z,21.60
2018-02-21T16:19:57.489Z,21.60
2018-02-21T16:22:25.818Z,21.70
2018-02-21T16:24:54.100Z,22.20
2018-02-21T16:27:22.375Z,22.30
2018-02-21T16:29:50.669Z,22.10
2018-02-21T16:32:18.976Z,22.70
2018-02-21T16:34:47.802Z,22.30
2018-02-21T16:37:16.087Z,22.30
2018-02-21T16:39:44.615Z,22.80
2018-02-21T16:42:13.619Z,23.60
2018-02-21T16:44:42.383Z,23.60
2018-02-21T16:47:10.672Z,23.60
2018-02-21T16:49:38.977Z,23.70
2018-02-21T16:52:07.653Z,23.30
2018-02-21T16:54:35.978Z,23.30
2018-02-21T16:57:04.277Z,23.60
2018-02-21T16:59:32.639Z,23.30
2018-02-21T17:02:00.938Z,23.60
2018-02-21T17:04:29.239Z,23.20
2018-02-21T17:06:57.976Z,23.90
2018-02-21T17:09:26.440Z,23.90
2018-02-21T17:11:54.776Z,23.80
2018-02-21T17:14:23.151Z,22.90
2018-02-21T17:16:51.462Z,24.20
2018-02-21T17:19:19.765Z,23.50
2018-02-21T17:21:48.128Z,24.20
2018-02-21T17:24:16.423Z,23.70
2018-02-21T17:26:44.714Z,23.70
2018-02-21T17:29:13.022Z,23.70
2018-02-21T17:31:41.995Z,24.90
2018-02-21T17:34:10.328Z,24.90
2018-02-21T17:36:38.640Z,24.20
2018-02-21T17:39:06.966Z,24.70
2018-02-21T17:41:35.305Z,24.80
2018-02-21T17:44:03.667Z,24.80
2018-02-21T17:46:31.972Z,24.60
2018-02-21T17:49:00.658Z,24.30
2018-02-21T17:51:29.423Z,24.30
2018-02-21T17:53:57.802Z,24.30
2018-02-21T17:56:26.112Z,24.30
2018-02-21T17:58:54.958Z,24.20
2018-02-21T18:01:23.248Z,24.20
2018-02-21T18:03:51.534Z,24.10
2018-02-21T18:06:20.626Z,24.00
2018-02-21T18:08:48.964Z,24.00
2018-02-21T18:11:17.280Z,24.50
2018-02-21T18:13:45.566Z,24.60
2018-02-21T18:16:14.256Z,24.00
2018-02-21T18:18:42.974Z,24.60
2018-02-21T18:21:17.019Z,24.60
2018-02-21T18:23:45.707Z,24.30
2018-02-21T18:26:14.023Z,24.50
2018-02-21T18:28:42.700Z,24.30
2018-02-21T18:31:11.678Z,24.50
2018-02-21T18:33:39.997Z,24.50
2018-02-21T18:36:08.316Z,24.40
2018-02-21T18:38:36.617Z,26.60
2018-02-21T18:41:05.187Z,26.20
2018-02-21T18:43:34.392Z,26.60
2018-02-21T18:46:02.766Z,25.70
2018-02-21T18:48:31.352Z,26.50
2018-02-21T18:50:59.955Z,25.70
2018-02-21T18:53:29.614Z,33.50
2018-02-21T18:55:58.447Z,47.00
2018-02-21T18:58:27.323Z,47.00
2018-02-21T19:00:55.603Z,46.10
2018-02-21T19:03:23.956Z,38.40
2018-02-21T19:05:52.276Z,35.70
2018-02-21T19:08:21.727Z,33.50
2018-02-21T19:10:50.062Z,33.50
2018-02-21T19:13:18.373Z,32.60
2018-02-21T19:15:47.047Z,30.10
2018-02-21T19:18:15.915Z,28.10
2018-02-21T19:20:44.734Z,28.60
2018-02-21T19:23:14.080Z,28.30
2018-02-21T19:25:42.516Z,35.90
2018-02-21T19:28:11.714Z,36.50
2018-02-21T19:30:40.054Z,39.40
2018-02-21T19:33:08.372Z,37.20
2018-02-21T19:35:36.672Z,36.50
2018-02-21T19:38:06.360Z,34.50
2018-02-21T19:40:34.857Z,35.60
2018-02-21T19:43:03.143Z,38.10
2018-02-21T19:45:31.604Z,36.20
2018-02-21T19:47:59.967Z,37.90
2018-02-21T19:50:28.255Z,36.30
2018-02-21T19:52:56.575Z,36.50
2018-02-21T19:55:24.910Z,34.10
2018-02-21T19:57:53.203Z,36.60
2018-02-21T20:00:21.526Z,35.40
2018-02-21T20:02:49.842Z,35.70
2018-02-21T20:05:18.358Z,38.20
2018-02-21T20:07:46.816Z,34.70
2018-02-21T20:10:15.189Z,37.90
2018-02-21T20:12:43.502Z,39.10
2018-02-21T20:15:12.324Z,38.70
2018-02-21T20:17:40.710Z,34.70
2018-02-21T20:20:09.076Z,32.90
2018-02-21T20:22:37.438Z,31.40
2018-02-21T20:25:06.170Z,29.50
2018-02-21T20:27:34.553Z,29.50
2018-02-21T20:30:02.955Z,29.30
2018-02-21T20:32:31.275Z,28.60
2018-02-21T20:34:59.798Z,28.60
2018-02-21T20:37:28.144Z,28.60
2018-02-21T20:39:56.497Z,28.30
2018-02-21T20:42:24.946Z,27.30
2018-02-21T20:44:53.767Z,28.40
2018-02-21T20:47:22.328Z,28.40
2018-02-21T20:49:50.668Z,28.40
2018-02-21T20:52:19.031Z,27.70
2018-02-21T20:54:47.708Z,28.20
2018-02-21T20:57:16.595Z,28.30
2018-02-21T20:59:45.242Z,28.30
2018-02-21T21:02:13.962Z,28.30
2018-02-21T21:04:42.288Z,28.30
2018-02-21T21:07:10.577Z,28.10
2018-02-21T21:09:39.041Z,28.10
2018-02-21T21:12:07.347Z,28.40
2018-02-21T21:14:35.631Z,28.40
2018-02-21T21:17:04.446Z,28.10
2018-02-21T21:19:32.748Z,28.10
2018-02-21T21:22:01.265Z,28.00
2018-02-21T21:24:29.579Z,28.30
2018-02-21T21:26:58.264Z,28.50
2018-02-21T21:29:27.096Z,28.30
2018-02-21T21:31:55.415Z,28.30
2018-02-21T21:34:23.746Z,28.40
2018-02-21T21:36:53.136Z,28.60
2018-02-21T21:39:21.478Z,28.50
2018-02-21T21:41:49.841Z,28.70
2018-02-21T21:44:18.566Z,29.00
2018-02-21T21:46:47.094Z,29.00
2018-02-21T21:49:15.671Z,28.90
2018-02-21T21:51:44.004Z,28.80
2018-02-21T21:54:12.332Z,29.00
2018-02-21T21:56:41.193Z,29.10
2018-02-21T21:59:09.491Z,29.00
2018-02-21T22:01:38.902Z,28.80
2018-02-21T22:04:07.187Z,28.90
2018-02-21T22:06:35.508Z,28.80
2018-02-21T22:09:03.829Z,28.70
2018-02-21T22:11:32.127Z,28.80
2018-02-21T22:14:00.831Z,28.70
2018-02-21T22:16:29.152Z,28.70
2018-02-21T22:18:57.446Z,28.90
2018-02-21T22:21:25.728Z,28.90
2018-02-21T22:23:54.317Z,28.80
2018-02-21T22:26:22.616Z,31.30
2018-02-21T22:28:50.900Z,29.20
2018-02-21T22:31:19.227Z,29.30
2018-02-21T22:33:47.485Z,29.40
2018-02-21T22:36:15.785Z,29.30
2018-02-21T22:38:44.511Z,29.10
2018-02-21T22:41:12.801Z,28.90
2018-02-21T22:43:41.077Z,28.70
2018-02-21T22:46:09.630Z,28.60
2018-02-21T22:48:38.595Z,28.30
2018-02-21T22:51:06.884Z,28.30
2018-02-21T22:53:35.609Z,28.10
2018-02-21T22:56:04.018Z,28.10
2018-02-21T22:58:32.633Z,28.10
2018-02-21T23:01:01.635Z,28.00
2018-02-21T23:03:29.968Z,28.00
2018-02-21T23:05:58.249Z,27.90
2018-02-21T23:08:26.521Z,27.90
2018-02-21T23:10:54.814Z,27.80
2018-02-21T23:13:23.090Z,27.80
2018-02-21T23:15:51.398Z,27.80
2018-02-21T23:18:20.077Z,27.80
2018-02-21T23:20:49.051Z,27.70
2018-02-21T23:23:17.347Z,27.70
2018-02-21T23:25:45.627Z,27.70
2018-02-21T23:28:14.323Z,27.70
2018-02-21T23:30:43.903Z,27.70
2018-02-21T23:33:12.178Z,27.70
2018-02-21T23:35:41.259Z,27.70
2018-02-21T23:38:09.660Z,27.70
2018-02-21T23:40:37.940Z,27.70
2018-02-21T23:43:06.634Z,27.70
2018-02-21T23:45:35.404Z,27.70
2018-02-21T23:48:03.794Z,27.70
2018-02-21T23:50:32.471Z,27.70
2018-02-21T23:53:00.784Z,27.70
2018-02-21T23:55:29.095Z,27.70
2018-02-21T23:57:57.370Z,27.70
